Time;durP1;ratioP1;P1;durP2;ratioP2;P2;SDS_P1;SDS_P2;PMS_P1;PMS_P2;Temp;Humidity;BMP_temperature;BMP_pressure;BME280_temperature;BME280_humidity;BME280_pressure;Samples;Min_cycle;Max_cycle;Signal;HPM_P1;HPM_P2
2022/07/13 00:01:32;;;;;;;4.28;1.60;;;20.40;99.90;;;;;;6265866;28;20052;-77
2022/07/13 00:04:35;;;;;;;3.03;2.40;;;20.30;99.90;;;;;;6240688;28;20054;-77
2022/07/13 00:07:37;;;;;;;3.55;2.50;;;20.30;99.90;;;;;;6241820;28;20060;-77
2022/07/13 00:10:39;;;;;;;3.75;2.40;;;20.30;99.90;;;;;;6250735;28;20045;-77
2022/07/13 00:13:41;;;;;;;5.05;2.58;;;20.30;99.90;;;;;;6246697;28;20479;-77
2022/07/13 00:16:43;;;;;;;3.58;2.80;;;20.30;99.90;;;;;;6249039;28;20063;-77
2022/07/13 00:19:47;;;;;;;4.72;2.90;;;20.20;99.90;;;;;;6251376;28;20049;-77
2022/07/13 00:22:48;;;;;;;3.38;2.60;;;20.20;99.90;;;;;;6249937;28;20046;-77
2022/07/13 00:25:51;;;;;;;3.33;2.40;;;20.10;99.90;;;;;;6229777;28;20057;-77
2022/07/13 00:28:53;;;;;;;6.30;2.60;;;20.10;99.90;;;;;;6249323;28;20045;-77
2022/07/13 00:31:55;;;;;;;2.03;1.83;;;20.00;99.90;;;;;;6232511;28;20046;-77
2022/07/13 00:34:58;;;;;;;3.95;2.80;;;20.00;99.90;;;;;;6249591;28;20053;-77
2022/07/13 00:38:01;;;;;;;4.90;3.28;;;20.00;99.90;;;;;;6249455;28;20050;-78
2022/07/13 00:41:05;;;;;;;3.47;2.72;;;20.00;99.90;;;;;;6250893;28;20049;-78
2022/07/13 00:44:08;;;;;;;7.65;3.00;;;20.00;99.90;;;;;;6248982;28;20403;-77
2022/07/13 00:47:10;;;;;;;7.07;2.78;;;20.00;99.90;;;;;;6237934;28;20049;-78
2022/07/13 00:50:14;;;;;;;3.97;2.40;;;20.00;99.90;;;;;;6276522;28;20084;-78
2022/07/13 00:53:18;;;;;;;4.45;3.20;;;20.00;99.90;;;;;;6275311;28;20052;-77
2022/07/13 00:56:20;;;;;;;4.25;3.30;;;20.00;99.90;;;;;;6280724;28;20056;-78
2022/07/13 00:59:22;;;;;;;4.57;3.30;;;20.10;99.90;;;;;;6250704;28;20156;-77
2022/07/13 01:02:24;;;;;;;2.80;2.20;;;20.10;99.90;;;;;;6249274;28;20480;-78
2022/07/13 01:05:28;;;;;;;6.25;3.47;;;20.10;99.90;;;;;;6248218;28;20115;-78
2022/07/13 01:08:31;;;;;;;3.03;2.38;;;20.10;99.90;;;;;;6224385;28;20119;-78
2022/07/13 01:11:34;;;;;;;1.98;1.63;;;20.20;99.90;;;;;;6225139;28;20057;-78
2022/07/13 01:14:37;;;;;;;6.22;4.30;;;20.20;99.90;;;;;;6224472;28;20042;-78
2022/07/13 01:17:40;;;;;;;8.05;4.85;;;20.30;99.90;;;;;;6241333;28;20487;-78
2022/07/13 01:20:44;;;;;;;7.00;3.40;;;20.30;99.90;;;;;;6244485;28;20426;-78
2022/07/13 01:23:48;;;;;;;4.22;2.53;;;20.40;99.90;;;;;;6249886;28;20054;-78
2022/07/13 01:26:50;;;;;;;5.13;3.10;;;20.40;99.90;;;;;;6255113;28;20053;-78
2022/07/13 01:29:52;;;;;;;4.75;3.08;;;20.50;99.90;;;;;;6248939;28;20410;-78
2022/07/13 01:32:54;;;;;;;3.85;3.08;;;20.60;99.90;;;;;;6249901;28;20057;-78
2022/07/13 01:35:56;;;;;;;8.50;5.10;;;20.70;99.90;;;;;;6246498;28;20045;-78
2022/07/13 01:38:59;;;;;;;4.75;3.60;;;20.80;99.90;;;;;;6240691;28;20045;-78
2022/07/13 01:42:01;;;;;;;6.05;4.78;;;20.80;99.90;;;;;;6249581;28;20414;-78
2022/07/13 01:45:06;;;;;;;3.78;3.30;;;20.80;99.90;;;;;;6249449;28;20487;-78
2022/07/13 01:48:07;;;;;;;7.20;4.40;;;20.80;99.90;;;;;;6264286;28;20065;-79
2022/07/13 01:51:09;;;;;;;4.30;3.75;;;20.70;99.90;;;;;;6249216;28;20306;-78
2022/07/13 01:54:13;;;;;;;8.18;4.90;;;20.60;99.90;;;;;;6245624;28;20494;-78
2022/07/13 01:57:14;;;;;;;4.32;3.58;;;20.60;99.90;;;;;;6239967;28;20062;-78
2022/07/13 02:00:18;;;;;;;7.03;4.72;;;20.50;99.90;;;;;;6248207;28;20049;-77
2022/07/13 02:03:20;;;;;;;4.40;3.92;;;20.40;99.90;;;;;;6247721;28;20064;-78
2022/07/13 02:06:22;;;;;;;6.03;4.97;;;20.50;99.90;;;;;;6246280;28;20052;-78
2022/07/13 02:09:26;;;;;;;3.03;2.75;;;20.50;99.90;;;;;;6248715;28;20431;-78
2022/07/13 02:12:28;;;;;;;3.80;3.40;;;20.50;99.90;;;;;;6237684;28;20042;-78
2022/07/13 02:15:30;;;;;;;9.95;6.50;;;20.50;99.90;;;;;;6222708;28;20141;-78
2022/07/13 02:18:32;;;;;;;8.38;5.07;;;20.60;99.90;;;;;;6243895;28;20049;-78
2022/07/13 02:21:34;;;;;;;2.88;2.03;;;20.60;99.90;;;;;;6247557;28;20069;-78
2022/07/13 02:24:37;;;;;;;10.45;4.88;;;20.60;99.90;;;;;;6248435;28;20052;-77
2022/07/13 02:27:39;;;;;;;7.25;6.55;;;20.50;99.90;;;;;;6244418;28;20057;-78
2022/07/13 02:30:41;;;;;;;5.22;3.53;;;20.50;99.90;;;;;;6269733;28;20049;-78
2022/07/13 02:33:43;;;;;;;4.90;4.28;;;20.50;99.90;;;;;;6226288;28;20526;-78
2022/07/13 02:36:45;;;;;;;9.00;6.70;;;20.60;99.90;;;;;;6246812;28;20494;-78
2022/07/13 02:39:48;;;;;;;9.27;6.05;;;20.60;99.90;;;;;;6247005;28;20071;-78
2022/07/13 02:42:50;;;;;;;7.57;6.05;;;20.60;99.90;;;;;;6247946;28;20053;-78
2022/07/13 02:45:52;;;;;;;5.53;3.75;;;20.60;99.90;;;;;;6240324;28;20042;-78
2022/07/13 02:48:55;;;;;;;3.60;2.42;;;20.50;99.90;;;;;;6247835;28;20055;-78
2022/07/13 02:51:57;;;;;;;3.30;2.00;;;20.50;99.90;;;;;;6248124;28;20053;-78
2022/07/13 02:55:00;;;;;;;6.00;4.70;;;20.60;99.90;;;;;;6247698;28;20056;-78
2022/07/13 02:58:02;;;;;;;2.20;1.98;;;20.60;99.90;;;;;;6246876;28;20425;-78
2022/07/13 03:01:04;;;;;;;10.18;7.68;;;20.70;99.90;;;;;;6246571;28;20045;-79
2022/07/13 03:04:06;;;;;;;6.45;5.65;;;20.80;99.90;;;;;;6254563;28;20057;-78
2022/07/13 03:07:08;;;;;;;8.80;6.20;;;20.90;99.90;;;;;;6246565;28;20053;-77
2022/07/13 03:10:13;;;;;;;3.08;1.92;;;21.00;99.90;;;;;;6246727;28;20478;-78
2022/07/13 03:13:14;;;;;;;5.35;4.88;;;21.10;99.90;;;;;;6246983;28;20455;-78
2022/07/13 03:16:16;;;;;;;5.82;5.25;;;21.10;99.90;;;;;;6245161;28;20410;-78
2022/07/13 03:19:18;;;;;;;10.82;7.07;;;21.10;99.90;;;;;;6244528;28;20434;-78
2022/07/13 03:22:20;;;;;;;7.07;6.28;;;21.10;99.90;;;;;;6222644;28;20407;-78
2022/07/13 03:25:23;;;;;;;9.57;8.52;;;21.10;99.90;;;;;;6245269;28;20038;-78
2022/07/13 03:28:25;;;;;;;9.27;8.18;;;21.10;99.90;;;;;;6247277;28;20053;-78
2022/07/13 03:31:27;;;;;;;4.18;3.60;;;21.10;99.90;;;;;;6245568;28;20049;-78
2022/07/13 03:34:29;;;;;;;6.93;6.28;;;21.10;99.90;;;;;;6245068;28;20048;-78
2022/07/13 03:37:31;;;;;;;9.38;8.38;;;21.10;99.90;;;;;;6236777;28;20050;-78
2022/07/13 03:40:35;;;;;;;5.38;4.90;;;21.20;99.90;;;;;;6270602;28;20049;-78
2022/07/13 03:43:36;;;;;;;6.80;6.13;;;21.10;99.90;;;;;;6271637;28;20048;-78
2022/07/13 03:46:38;;;;;;;10.00;9.10;;;21.20;99.90;;;;;;6257436;28;20487;-78
2022/07/13 03:49:40;;;;;;;5.63;4.60;;;21.00;99.90;;;;;;6246842;28;20046;-78
2022/07/13 03:52:42;;;;;;;5.03;4.63;;;21.10;99.90;;;;;;6251083;28;20050;-78
2022/07/13 03:55:46;;;;;;;8.10;7.38;;;21.10;99.90;;;;;;6243416;28;20053;-78
2022/07/13 03:58:48;;;;;;;12.32;8.95;;;21.10;99.90;;;;;;6245086;28;20057;-78
2022/07/13 04:01:50;;;;;;;6.03;5.53;;;21.20;99.90;;;;;;6246427;28;20048;-78
2022/07/13 04:04:51;;;;;;;5.18;4.07;;;21.10;99.90;;;;;;6222132;28;20498;-77
2022/07/13 04:07:53;;;;;;;5.75;4.50;;;21.10;99.90;;;;;;6271912;28;20046;-79
2022/07/13 04:10:57;;;;;;;10.35;6.93;;;21.00;99.90;;;;;;6238278;28;20057;-79
2022/07/13 04:13:59;;;;;;;2.42;2.20;;;21.10;99.90;;;;;;6221646;28;20069;-78
2022/07/13 04:17:00;;;;;;;11.77;9.18;;;21.00;99.90;;;;;;6224971;28;20490;-74
2022/07/13 04:20:02;;;;;;;9.73;5.53;;;21.00;99.90;;;;;;6246906;28;20061;-74
2022/07/13 04:23:04;;;;;;;12.48;8.13;;;21.00;99.90;;;;;;6244235;28;20494;-74
2022/07/13 04:26:08;;;;;;;7.90;4.20;;;21.00;99.90;;;;;;6253186;28;20049;-74
2022/07/13 04:29:10;;;;;;;;;;;21.00;99.90;;;;;;6246447;28;20513;-74
2022/07/13 04:32:12;;;;;;;4.63;4.15;;;20.90;99.90;;;;;;6246543;28;19920;-74
2022/07/13 04:35:13;;;;;;;9.88;8.88;;;20.90;99.90;;;;;;6263656;28;20057;-74
2022/07/13 04:38:15;;;;;;;7.75;6.75;;;20.90;99.90;;;;;;6256307;28;20054;-74
2022/07/13 04:41:19;;;;;;;12.82;7.82;;;20.90;99.90;;;;;;6248859;28;20053;-74
2022/07/13 04:44:25;;;;;;;7.80;7.10;;;20.90;99.90;;;;;;6242312;28;20527;-74
2022/07/13 04:47:27;;;;;;;8.27;6.85;;;20.90;99.90;;;;;;6256521;28;20128;-74
2022/07/13 04:50:29;;;;;;;11.65;9.13;;;20.80;99.90;;;;;;6242534;28;20089;-74
2022/07/13 04:53:31;;;;;;;7.47;5.38;;;20.80;99.90;;;;;;6249547;28;20049;-74
2022/07/13 04:56:34;;;;;;;8.02;7.22;;;20.80;99.90;;;;;;6250224;28;20060;-74
2022/07/13 04:59:36;;;;;;;7.20;6.47;;;20.90;99.90;;;;;;6249140;28;20053;-74
2022/07/13 05:02:38;;;;;;;9.13;8.05;;;20.90;99.90;;;;;;6240896;28;20052;-74
2022/07/13 05:05:40;;;;;;;5.88;4.43;;;20.90;99.90;;;;;;6249388;28;20050;-74
2022/07/13 05:08:42;;;;;;;7.60;6.90;;;20.90;99.90;;;;;;6248224;28;20053;-74
2022/07/13 05:11:45;;;;;;;10.45;7.82;;;21.00;99.90;;;;;;6248039;28;20057;-74
2022/07/13 05:14:47;;;;;;;7.40;5.55;;;21.00;99.90;;;;;;6264561;28;20056;-74
2022/07/13 05:17:50;;;;;;;12.80;6.35;;;21.00;99.90;;;;;;6240435;28;20053;-73
2022/07/13 05:20:52;;;;;;;9.55;7.22;;;21.10;99.90;;;;;;6223746;28;20112;-74
2022/07/13 05:23:54;;;;;;;8.90;8.15;;;21.10;99.90;;;;;;6234782;28;20053;-74
2022/07/13 05:26:57;;;;;;;7.93;6.88;;;21.00;99.90;;;;;;6248481;28;20053;-74
2022/07/13 05:30:03;;;;;;;5.78;4.22;;;21.00;99.90;;;;;;6247625;28;20049;-73
2022/07/13 05:33:05;;;;;;;4.07;3.40;;;21.10;99.90;;;;;;6249547;28;20460;-73
2022/07/13 05:36:07;;;;;;;7.88;7.07;;;21.00;99.90;;;;;;6240819;28;20054;-77
2022/07/13 05:39:09;;;;;;;7.72;6.82;;;21.20;99.90;;;;;;6270887;28;20423;-82
2022/07/13 05:42:13;;;;;;;8.50;6.93;;;21.20;99.90;;;;;;6270223;28;20048;-78
2022/07/13 05:45:15;;;;;;;15.43;7.40;;;21.20;99.90;;;;;;6273298;28;20049;-74
2022/07/13 05:48:17;;;;;;;23.27;7.95;;;21.10;99.90;;;;;;6254875;28;20038;-81
2022/07/13 05:51:19;;;;;;;7.50;3.00;;;21.10;99.90;;;;;;6240963;28;20049;-80
2022/07/13 05:54:21;;;;;;;7.65;2.95;;;21.20;99.90;;;;;;6234592;28;20042;-85
2022/07/13 05:57:24;;;;;;;5.38;2.63;;;21.40;99.90;;;;;;6245032;28;20050;-87
2022/07/13 06:00:27;;;;;;;6.05;5.43;;;21.60;99.90;;;;;;6245130;28;20415;-85
2022/07/13 06:03:29;;;;;;;4.60;2.47;;;21.70;99.90;;;;;;6235253;28;20049;-84
2022/07/13 06:06:30;;;;;;;6.18;5.50;;;21.80;99.90;;;;;;6247737;28;20049;-81
2022/07/13 06:09:32;;;;;;;6.47;5.75;;;21.90;99.90;;;;;;6253567;28;20054;-81
2022/07/13 06:12:36;;;;;;;6.70;3.72;;;21.90;99.90;;;;;;6223191;28;20514;-82
2022/07/13 06:15:38;;;;;;;6.28;4.22;;;22.00;99.90;;;;;;6242652;28;20077;-86
2022/07/13 06:18:40;;;;;;;7.20;2.90;;;22.10;99.90;;;;;;6242407;28;20054;-80
2022/07/13 06:21:42;;;;;;;5.78;3.10;;;22.10;99.90;;;;;;6242141;28;20057;-79
2022/07/13 06:24:44;;;;;;;6.43;5.82;;;22.20;99.90;;;;;;6272869;28;20052;-79
2022/07/13 06:27:47;;;;;;;7.95;7.10;;;22.20;99.90;;;;;;6243886;28;20061;-80
2022/07/13 06:30:49;;;;;;;6.05;3.33;;;22.20;99.90;;;;;;6247871;28;20060;-79
2022/07/13 06:33:52;;;;;;;6.95;6.07;;;22.20;99.90;;;;;;6246598;28;20045;-79
2022/07/13 06:36:54;;;;;;;6.63;4.30;;;22.20;99.90;;;;;;6246299;28;20053;-79
2022/07/13 06:39:56;;;;;;;5.82;2.90;;;22.30;99.90;;;;;;6262843;28;20045;-79
2022/07/13 06:43:02;;;;;;;4.88;3.10;;;22.40;99.90;;;;;;6272734;28;20048;-80
2022/07/13 06:46:04;;;;;;;4.25;3.85;;;22.50;99.90;;;;;;6247944;28;20454;-79
2022/07/13 06:49:06;;;;;;;3.72;3.05;;;22.50;99.90;;;;;;6245707;28;20065;-80
2022/07/13 06:52:08;;;;;;;6.18;3.40;;;22.50;99.90;;;;;;6246383;28;20056;-80
2022/07/13 06:55:10;;;;;;;6.97;5.82;;;22.60;99.90;;;;;;6246529;28;20060;-80
2022/07/13 06:58:14;;;;;;;5.15;4.05;;;22.60;99.90;;;;;;6247267;28;20072;-79
2022/07/13 07:01:16;;;;;;;6.80;3.25;;;22.70;99.90;;;;;;6242573;28;20058;-79
2022/07/13 07:04:17;;;;;;;5.07;3.17;;;22.70;99.90;;;;;;6227699;28;20053;-79
2022/07/13 07:07:19;;;;;;;2.95;2.50;;;22.70;99.90;;;;;;6233168;28;20482;-80
2022/07/13 07:10:21;;;;;;;3.63;2.85;;;22.80;99.90;;;;;;6246350;28;20410;-79
2022/07/13 07:13:25;;;;;;;5.50;3.10;;;22.90;99.90;;;;;;6246900;28;20037;-81
2022/07/13 07:16:27;;;;;;;5.22;3.22;;;23.00;99.90;;;;;;6263245;28;20056;-80
2022/07/13 07:19:29;;;;;;;3.30;2.72;;;23.10;99.90;;;;;;6231800;28;20054;-79
2022/07/13 07:22:31;;;;;;;3.63;2.88;;;23.20;99.90;;;;;;6245044;28;20052;-79
2022/07/13 07:25:33;;;;;;;5.03;3.40;;;23.40;99.90;;;;;;6246962;28;20050;-80
2022/07/13 07:28:36;;;;;;;5.60;3.70;;;23.50;99.90;;;;;;6244210;28;20056;-79
2022/07/13 07:31:38;;;;;;;;;;;23.70;99.90;;;;;;6247608;28;20050;-79
2022/07/13 07:34:40;;;;;;;8.73;7.35;;;23.90;99.90;;;;;;6240531;28;20069;-79
2022/07/13 07:37:42;;;;;;;6.55;5.93;;;23.80;99.90;;;;;;6251650;28;20049;-79
2022/07/13 07:40:44;;;;;;;7.68;6.93;;;23.70;99.90;;;;;;6247135;28;20123;-79
2022/07/13 07:43:48;;;;;;;5.28;3.10;;;23.80;99.90;;;;;;6245667;28;20041;-79
2022/07/13 07:46:50;;;;;;;3.45;3.15;;;23.80;99.90;;;;;;6246581;28;20110;-79
2022/07/13 07:49:53;;;;;;;4.05;2.90;;;23.80;99.90;;;;;;6246178;28;20049;-79
2022/07/13 07:52:55;;;;;;;10.77;8.40;;;23.70;99.90;;;;;;6229787;28;20050;-80
2022/07/13 07:55:57;;;;;;;8.70;7.47;;;23.90;99.90;;;;;;6222101;28;20053;-79
2022/07/13 07:59:01;;;;;;;4.13;3.35;;;24.10;99.90;;;;;;6234810;28;20053;-80
2022/07/13 08:02:02;;;;;;;;;;;24.30;99.90;;;;;;6245458;28;20080;-79
2022/07/13 08:05:05;;;;;;;6.78;5.53;;;24.40;99.90;;;;;;6245532;28;19963;-79
2022/07/13 08:08:07;;;;;;;9.35;8.40;;;24.30;99.90;;;;;;6244447;28;20085;-79
2022/07/13 08:11:16;;;;;;;9.85;7.90;;;24.20;99.90;;;;;;6222008;28;20061;-79
2022/07/13 08:14:19;;;;;;;11.25;8.48;;;24.30;99.90;;;;;;6224016;28;20046;-79
2022/07/13 08:17:21;;;;;;;14.60;10.47;;;24.40;99.90;;;;;;6244916;28;20049;-79
2022/07/13 08:20:23;;;;;;;7.03;5.45;;;24.60;99.90;;;;;;6246719;28;20046;-79
2022/07/13 08:26:45;;;;;;;6.40;4.78;;;24.60;99.90;;;;;;6234618;28;20042;-79
2022/07/13 08:29:48;;;;;;;6.47;5.63;;;24.60;99.90;;;;;;6237181;28;20430;-79
2022/07/13 08:32:50;;;;;;;;;;;24.70;99.90;;;;;;6252041;28;20110;-79
2022/07/13 08:39:12;;;;;;;5.47;4.72;;;24.80;99.90;;;;;;6250742;28;20049;-79
2022/07/13 08:42:14;;;;;;;4.88;3.92;;;24.90;99.90;;;;;;6249282;28;20057;-79
2022/07/13 08:45:18;;;;;;;13.00;10.10;;;25.00;99.90;;;;;;6247682;28;20045;-79
2022/07/13 08:48:28;;;;;;;6.75;5.40;;;25.10;99.90;;;;;;6250253;28;20056;-79
2022/07/13 08:51:32;;;;;;;6.03;4.10;;;25.30;99.90;;;;;;6251130;28;20049;-79
2022/07/13 08:54:34;;;;;;;6.93;5.75;;;25.20;99.90;;;;;;6250393;28;20061;-80
2022/07/13 08:57:38;;;;;;;11.20;8.13;;;25.10;99.90;;;;;;6248619;28;20049;-79
2022/07/13 09:00:43;;;;;;;10.20;8.38;;;24.90;99.90;;;;;;6249468;28;20046;-79
2022/07/13 09:03:46;;;;;;;5.40;3.75;;;24.90;99.90;;;;;;6250654;28;20049;-79
2022/07/13 09:06:49;;;;;;;10.60;7.88;;;24.70;99.90;;;;;;6248309;28;20060;-78
2022/07/13 09:09:56;;;;;;;9.20;4.63;;;24.60;99.90;;;;;;6248957;28;20053;-79
2022/07/13 09:12:58;;;;;;;10.57;7.80;;;24.60;99.90;;;;;;6248258;28;20052;-78
2022/07/13 09:16:15;;;;;;;5.65;4.20;;;24.70;99.90;;;;;;6249135;28;20194;-79
2022/07/13 09:19:17;;;;;;;6.35;5.70;;;24.70;99.90;;;;;;6247695;28;20057;-78
2022/07/13 09:22:19;;;;;;;7.38;6.10;;;24.70;99.90;;;;;;6248174;28;20053;-79
2022/07/13 09:25:32;;;;;;;8.18;6.03;;;24.60;99.90;;;;;;6249813;28;20045;-79
2022/07/13 09:28:44;;;;;;;;;;;24.70;99.90;;;;;;6265704;28;20053;-79
2022/07/13 09:31:52;;;;;;;5.35;3.22;;;24.60;99.90;;;;;;6234817;28;19944;-80
2022/07/13 09:34:58;;;;;;;4.50;3.58;;;24.50;99.90;;;;;;6239285;28;20045;-79
2022/07/13 09:38:00;;;;;;;9.43;5.40;;;24.60;99.90;;;;;;6246471;28;20440;-79
2022/07/13 09:41:21;;;;;;;7.60;5.50;;;24.70;99.90;;;;;;6247098;28;20045;-79
2022/07/13 09:47:51;;;;;;;8.27;4.70;;;25.00;99.90;;;;;;6261820;28;20141;-79
2022/07/13 09:50:55;;;;;;;5.32;4.28;;;25.10;99.90;;;;;;6246730;28;20056;-79
2022/07/13 09:54:00;;;;;;;5.18;3.10;;;25.10;99.90;;;;;;6249460;28;20081;-78
2022/07/13 09:57:04;;;;;;;4.57;3.25;;;25.10;99.90;;;;;;6248939;28;20135;-78
2022/07/13 10:00:10;;;;;;;4.22;3.10;;;25.10;99.90;;;;;;6248102;28;20414;-79
2022/07/13 10:03:14;;;;;;;6.45;3.53;;;25.10;99.90;;;;;;6247480;28;20058;-78
2022/07/13 10:06:20;;;;;;;5.32;3.22;;;25.10;99.90;;;;;;6242253;28;20054;-79
2022/07/13 10:09:23;;;;;;;4.95;3.58;;;25.10;99.90;;;;;;6234918;28;20042;-77
2022/07/13 10:12:25;;;;;;;;;;;25.30;99.90;;;;;;6237087;28;20045;-78
2022/07/13 10:15:27;;;;;;;4.32;3.03;;;25.30;99.90;;;;;;6238847;28;19921;-80
2022/07/13 10:18:36;;;;;;;6.10;3.17;;;25.50;99.90;;;;;;6237288;28;20494;-74
2022/07/13 10:21:53;;;;;;;6.80;2.65;;;25.60;99.90;;;;;;6238950;28;20057;-82
2022/07/13 10:24:57;;;;;;;4.55;3.47;;;25.60;99.90;;;;;;6250867;28;20053;-80
2022/07/13 10:28:06;;;;;;;3.70;3.00;;;25.40;99.90;;;;;;6223407;28;20513;-80
2022/07/13 10:31:29;;;;;;;4.68;3.00;;;25.50;99.90;;;;;;6221409;28;20414;-78
2022/07/13 10:34:51;;;;;;;4.00;2.85;;;25.70;99.90;;;;;;6265012;28;20053;-84
2022/07/13 10:38:15;;;;;;;6.60;2.92;;;25.80;99.90;;;;;;6222931;28;20050;-83
2022/07/13 10:41:21;;;;;;;5.30;2.60;;;25.90;99.90;;;;;;6223178;28;20042;-82
2022/07/13 10:44:35;;;;;;;3.97;2.40;;;26.00;99.90;;;;;;6226176;28;20049;-80
2022/07/13 10:47:45;;;;;;;3.28;2.20;;;26.10;99.90;;;;;;6234330;28;20050;-79
2022/07/13 10:50:52;;;;;;;4.43;2.42;;;26.00;99.90;;;;;;6227965;28;20041;-76
2022/07/13 10:54:09;;;;;;;5.22;2.47;;;26.10;99.90;;;;;;6262322;28;20053;-77
2022/07/13 10:57:15;;;;;;;3.13;2.35;;;26.20;99.90;;;;;;6245405;28;20498;-76
2022/07/13 11:00:18;;;;;;;6.90;4.68;;;26.20;99.90;;;;;;6245510;28;20054;-74
2022/07/13 11:03:24;;;;;;;;;;;26.10;99.90;;;;;;6247809;28;20041;-75
2022/07/13 11:06:28;;;;;;;3.15;1.88;;;26.20;99.90;;;;;;6244896;28;19921;-74
2022/07/13 11:09:30;;;;;;;4.72;3.13;;;26.40;99.90;;;;;;6234320;28;20195;-74
2022/07/13 11:12:34;;;;;;;2.85;2.22;;;26.40;99.90;;;;;;6246377;28;20049;-75
2022/07/13 11:15:45;;;;;;;3.00;2.40;;;26.40;99.90;;;;;;6244454;28;20056;-75
2022/07/13 11:18:54;;;;;;;4.07;2.00;;;26.40;99.90;;;;;;6234613;28;20053;-75
2022/07/13 11:22:08;;;;;;;4.10;2.15;;;26.20;99.90;;;;;;6239355;28;20053;-75
2022/07/13 11:25:27;;;;;;;2.20;2.00;;;26.30;99.90;;;;;;6230828;28;20056;-75
2022/07/13 11:28:34;;;;;;;4.57;1.80;;;26.20;99.30;;;;;;6237554;28;20049;-75
2022/07/13 11:31:37;;;;;;;3.92;2.15;;;26.20;98.30;;;;;;6229857;28;20056;-75
2022/07/13 11:34:39;;;;;;;2.20;1.60;;;26.10;99.90;;;;;;6236132;28;20042;-74
2022/07/13 11:37:44;;;;;;;2.60;2.10;;;26.10;98.10;;;;;;6227012;28;20048;-75
2022/07/13 11:40:47;;;;;;;5.25;2.50;;;26.00;99.90;;;;;;6244170;28;20049;-75
2022/07/13 11:43:49;;;;;;;3.80;2.10;;;25.90;99.90;;;;;;6226835;28;20060;-75
2022/07/13 11:46:52;;;;;;;3.78;3.05;;;25.80;99.90;;;;;;6235830;28;20042;-75
2022/07/13 11:49:55;;;;;;;3.30;2.47;;;25.80;99.90;;;;;;6237684;28;20417;-75
2022/07/13 11:52:58;;;;;;;3.63;1.90;;;25.90;99.90;;;;;;6242830;28;20453;-75
2022/07/13 11:56:04;;;;;;;2.70;1.80;;;25.80;99.90;;;;;;6244805;28;20522;-75
2022/07/13 11:59:06;;;;;;;3.40;1.85;;;26.00;99.60;;;;;;6242379;28;20410;-75
2022/07/13 12:02:11;;;;;;;4.07;2.22;;;26.00;98.30;;;;;;6240119;28;20049;-75
2022/07/13 12:05:13;;;;;;;3.63;2.42;;;25.90;99.00;;;;;;6245380;28;20486;-75
2022/07/13 12:08:18;;;;;;;3.38;2.80;;;26.00;99.50;;;;;;6244983;28;20051;-74
2022/07/13 12:11:20;;;;;;;5.80;3.25;;;26.00;99.90;;;;;;6253094;28;20046;-75
2022/07/13 12:14:22;;;;;;;3.40;3.10;;;26.00;99.90;;;;;;6221733;28;20053;-75
2022/07/13 12:17:26;;;;;;;4.25;2.38;;;25.80;99.90;;;;;;6242006;28;20050;-74
2022/07/13 12:20:32;;;;;;;6.82;2.80;;;25.80;98.70;;;;;;6243535;28;20049;-75
2022/07/13 12:23:35;;;;;;;2.55;1.90;;;26.00;99.70;;;;;;6221649;28;20064;-75
2022/07/13 12:26:37;;;;;;;3.40;2.10;;;26.10;99.90;;;;;;6228361;28;20042;-75
2022/07/13 12:29:39;;;;;;;3.83;2.92;;;26.00;99.90;;;;;;6267709;28;20156;-75
2022/07/13 12:32:57;;;;;;;4.10;2.95;;;25.90;99.90;;;;;;6229537;28;20045;-76
2022/07/13 12:36:03;;;;;;;6.50;3.78;;;25.70;99.90;;;;;;6231142;28;20128;-75
2022/07/13 12:39:07;;;;;;;5.55;4.18;;;25.60;99.90;;;;;;6221907;28;20081;-75
2022/07/13 12:42:09;;;;;;;7.85;2.97;;;25.10;99.90;;;;;;6226813;28;20497;-75
2022/07/13 12:45:20;;;;;;;5.65;3.35;;;25.00;99.90;;;;;;6244887;28;20052;-75
2022/07/13 12:48:24;;;;;;;4.32;2.55;;;25.10;99.90;;;;;;6244154;28;20076;-75
2022/07/13 12:51:43;;;;;;;7.05;2.47;;;25.30;99.90;;;;;;6241603;28;20068;-75
2022/07/13 12:54:49;;;;;;;6.45;3.60;;;25.30;99.90;;;;;;6261365;28;20509;-75
2022/07/13 12:57:51;;;;;;;5.00;3.00;;;24.70;99.90;;;;;;6245593;28;20136;-75
2022/07/13 13:00:53;;;;;;;4.97;3.20;;;24.70;99.90;;;;;;6245373;28;20053;-75
2022/07/13 13:03:55;;;;;;;4.75;2.92;;;24.60;99.90;;;;;;6228690;28;20042;-75
2022/07/13 13:06:57;;;;;;;6.15;3.10;;;24.60;99.90;;;;;;6202698;28;20060;-75
2022/07/13 13:10:00;;;;;;;7.32;3.88;;;24.70;99.90;;;;;;6259680;28;20422;-74
2022/07/13 13:13:03;;;;;;;7.57;3.40;;;24.40;99.90;;;;;;6248372;28;20050;-75
2022/07/13 13:16:05;;;;;;;7.75;3.53;;;24.30;99.90;;;;;;6250554;28;20121;-75
2022/07/13 13:19:08;;;;;;;6.97;3.65;;;24.00;99.90;;;;;;6257894;28;20068;-76
2022/07/13 13:22:10;;;;;;;6.65;3.50;;;24.00;99.90;;;;;;6268351;28;20130;-76
2022/07/13 13:25:14;;;;;;;5.05;2.95;;;24.20;99.90;;;;;;6298419;28;20049;-76
2022/07/13 13:28:15;;;;;;;7.78;3.25;;;24.20;99.90;;;;;;6274722;28;20052;-75
2022/07/13 13:31:16;;;;;;;5.30;3.03;;;24.20;99.90;;;;;;6268707;28;20060;-75
2022/07/13 13:34:18;;;;;;;7.90;3.38;;;24.00;99.90;;;;;;6279409;28;20379;-75
2022/07/13 13:37:20;;;;;;;6.03;3.13;;;24.20;99.90;;;;;;6265424;28;20052;-76
2022/07/13 13:40:24;;;;;;;6.07;3.13;;;24.40;99.90;;;;;;6268831;28;20049;-75
2022/07/13 13:43:27;;;;;;;7.40;2.95;;;24.50;99.90;;;;;;6277675;28;20053;-76
2022/07/13 13:46:28;;;;;;;8.80;3.28;;;24.40;99.90;;;;;;6283754;28;20077;-75
2022/07/13 13:49:30;;;;;;;5.55;2.97;;;24.00;99.90;;;;;;6266714;28;20076;-75
2022/07/13 13:52:32;;;;;;;5.85;3.08;;;24.00;99.90;;;;;;6261010;28;20041;-75
2022/07/13 13:55:36;;;;;;;7.90;3.17;;;24.20;99.90;;;;;;6261104;28;20399;-76
2022/07/13 13:58:38;;;;;;;9.60;3.33;;;24.10;99.90;;;;;;6265366;28;20041;-76
2022/07/13 14:01:40;;;;;;;7.72;3.10;;;23.80;99.90;;;;;;6271155;28;20245;-75
2022/07/13 14:04:43;;;;;;;5.57;2.97;;;23.40;99.90;;;;;;6261036;28;20049;-75
2022/07/13 14:07:45;;;;;;;8.33;3.70;;;23.20;99.90;;;;;;6251245;28;20083;-75
2022/07/13 14:10:48;;;;;;;7.18;2.90;;;23.00;99.90;;;;;;6257932;28;20041;-75
2022/07/13 14:13:50;;;;;;;7.20;3.35;;;22.60;99.90;;;;;;6304625;28;20049;-75
2022/07/13 14:16:52;;;;;;;9.38;3.10;;;22.80;99.90;;;;;;6266048;28;20041;-75
2022/07/13 14:19:54;;;;;;;9.68;3.30;;;23.00;99.90;;;;;;6255033;28;20060;-74
2022/07/13 14:22:57;;;;;;;8.55;3.45;;;22.60;99.90;;;;;;6248407;28;20059;-74
2022/07/13 14:26:00;;;;;;;8.73;2.75;;;22.70;99.90;;;;;;6246883;28;20054;-75
2022/07/13 14:29:02;;;;;;;8.27;2.60;;;23.00;99.90;;;;;;6251781;28;20494;-75
2022/07/13 14:32:05;;;;;;;7.68;2.70;;;23.00;99.90;;;;;;6257635;28;20187;-75
2022/07/13 14:35:08;;;;;;;8.20;3.23;;;23.10;99.90;;;;;;6261085;28;20053;-75
2022/07/13 14:38:11;;;;;;;7.50;2.53;;;23.10;99.90;;;;;;6264803;28;20172;-75
2022/07/13 14:41:14;;;;;;;7.27;2.23;;;23.10;99.90;;;;;;6261185;28;20053;-75
2022/07/13 14:44:16;;;;;;;7.22;2.95;;;23.10;99.90;;;;;;6256542;28;20060;-74
2022/07/13 14:47:19;;;;;;;10.35;3.63;;;23.20;99.90;;;;;;6255421;28;20351;-75
2022/07/13 14:50:21;;;;;;;8.73;3.60;;;23.30;99.90;;;;;;6254492;28;20048;-74
2022/07/13 14:53:23;;;;;;;5.15;2.85;;;23.30;99.90;;;;;;6250953;28;20471;-74
2022/07/13 14:56:27;;;;;;;7.57;3.10;;;23.40;99.90;;;;;;6292962;28;20422;-73
2022/07/13 14:59:28;;;;;;;7.70;3.10;;;23.40;99.90;;;;;;6257755;28;20048;-73
2022/07/13 15:02:30;;;;;;;6.90;3.13;;;23.50;99.90;;;;;;6283700;28;20052;-75
2022/07/13 15:05:32;;;;;;;6.13;2.38;;;23.60;99.90;;;;;;6296228;28;20065;-75
2022/07/13 15:08:34;;;;;;;11.48;2.70;;;23.70;99.90;;;;;;6263091;28;20052;-75
2022/07/13 15:11:38;;;;;;;8.60;2.47;;;23.80;99.90;;;;;;6246487;28;20068;-75
2022/07/13 15:14:40;;;;;;;7.50;2.47;;;24.00;99.90;;;;;;6259736;28;20419;-74
2022/07/13 15:17:45;;;;;;;6.25;2.40;;;24.10;99.90;;;;;;6246669;28;20045;-75
2022/07/13 15:20:47;;;;;;;9.93;3.20;;;24.20;99.90;;;;;;6262187;28;20068;-75
2022/07/13 15:23:48;;;;;;;8.57;2.28;;;24.30;99.90;;;;;;6297569;28;20521;-75
2022/07/13 15:26:52;;;;;;;6.22;1.90;;;24.40;99.90;;;;;;6271140;28;20055;-75
2022/07/13 15:29:54;;;;;;;7.38;2.38;;;24.10;99.90;;;;;;6266979;28;20056;-77
2022/07/13 15:32:56;;;;;;;10.60;2.70;;;23.80;99.90;;;;;;6265854;28;20052;-76
2022/07/13 15:36:02;;;;;;;7.95;1.90;;;23.70;99.90;;;;;;6265032;28;20421;-75
2022/07/13 15:39:04;;;;;;;8.05;2.45;;;23.80;99.90;;;;;;6264048;28;20061;-76
2022/07/13 15:42:07;;;;;;;11.18;2.85;;;23.80;99.90;;;;;;6249701;28;20049;-77
2022/07/13 15:45:10;;;;;;;6.65;2.00;;;23.80;99.90;;;;;;6258143;28;20057;-76
2022/07/13 15:48:12;;;;;;;10.10;2.15;;;23.80;99.90;;;;;;6264036;28;20125;-76
2022/07/13 15:51:14;;;;;;;9.88;2.10;;;23.60;99.90;;;;;;6260129;28;20069;-77
2022/07/13 15:54:16;;;;;;;9.00;2.67;;;23.50;99.90;;;;;;6262922;28;20059;-75
2022/07/13 15:57:20;;;;;;;9.13;3.03;;;23.50;99.90;;;;;;6250863;28;20045;-77
2022/07/13 16:00:22;;;;;;;10.63;3.40;;;23.50;99.90;;;;;;6255871;28;20049;-74
2022/07/13 16:03:23;;;;;;;13.02;3.70;;;23.30;99.90;;;;;;6288864;28;20085;-76
2022/07/13 16:06:25;;;;;;;12.02;3.22;;;23.20;99.90;;;;;;6270089;28;20049;-76